Time;durP1;ratioP1;P1;durP2;ratioP2;P2;SDS_P1;SDS_P2;PMS_P1;PMS_P2;Temp;Humidity;BMP_temperature;BMP_pressure;BME280_temperature;BME280_humidity;BME280_pressure;Samples;Min_cycle;Max_cycle;Signal;HPM_P1;HPM_P2
2022/02/04 00:06:12;;;;;;;15.13;9.30;;;9.50;99.90;;;;;;5052848;28;20055;-61
2022/02/04 00:24:50;;;;;;;16.63;10.02;;;9.50;99.90;;;;;;5032610;28;20031;-60
2022/02/04 00:27:20;;;;;;;16.35;10.48;;;9.50;99.90;;;;;;5031200;28;20120;-61
2022/02/04 00:29:56;;;;;;;17.55;9.50;;;9.50;99.90;;;;;;5031449;28;20064;-60
2022/02/04 00:32:24;;;;;;;16.38;9.77;;;9.60;99.90;;;;;;5046269;28;20033;-61
2022/02/04 00:34:57;;;;;;;17.05;9.68;;;9.60;99.90;;;;;;5035147;28;20028;-60
2022/02/04 00:37:37;;;;;;;17.67;10.55;;;9.60;99.90;;;;;;5052252;28;20020;-60
2022/02/04 00:40:11;;;;;;;19.33;10.57;;;9.60;99.90;;;;;;5052313;28;20029;-61
2022/02/04 00:42:37;;;;;;;16.55;10.00;;;9.60;99.90;;;;;;5051976;28;20190;-61
2022/02/04 00:45:17;;;;;;;20.92;10.60;;;9.70;99.90;;;;;;5052263;28;20573;-61
2022/02/04 00:47:49;;;;;;;16.67;10.43;;;9.70;99.90;;;;;;5045169;28;20033;-61
2022/02/04 00:51:07;;;;;;;17.55;10.25;;;9.70;99.90;;;;;;5032522;28;20171;-61
2022/02/04 00:53:11;;;;;;;17.42;10.75;;;9.70;99.90;;;;;;5029118;28;20101;-61
2022/02/04 00:55:49;;;;;;;18.58;11.15;;;9.70;99.90;;;;;;5038489;28;20045;-61
2022/02/04 01:13:10;;;;;;;18.37;11.07;;;9.70;99.90;;;;;;5052222;28;20271;-60
2022/02/04 01:28:26;;;;;;;20.48;11.40;;;9.60;99.90;;;;;;5033396;28;20072;-60
2022/02/04 01:30:53;;;;;;;21.80;12.18;;;9.60;99.90;;;;;;5048532;28;20432;-60
2022/02/04 01:33:19;;;;;;;20.08;12.18;;;9.60;99.90;;;;;;5049676;28;20029;-60
2022/02/04 01:35:46;;;;;;;18.33;11.63;;;9.60;99.90;;;;;;5033903;28;20498;-60
2022/02/04 01:38:11;;;;;;;19.50;12.00;;;9.60;99.90;;;;;;5041628;28;20033;-61
2022/02/04 01:40:37;;;;;;;22.02;12.95;;;9.60;99.90;;;;;;5050916;28;20059;-60
2022/02/04 01:43:02;;;;;;;19.17;11.57;;;9.60;99.90;;;;;;5049307;28;20029;-60
2022/02/04 01:45:28;;;;;;;19.83;12.10;;;9.60;99.90;;;;;;5051618;28;20369;-60
2022/02/04 01:47:57;;;;;;;19.60;11.73;;;9.60;99.90;;;;;;5042303;28;20113;-60
2022/02/04 01:50:24;;;;;;;18.88;11.32;;;9.60;99.90;;;;;;5031335;28;20017;-60
2022/02/04 01:52:50;;;;;;;19.52;12.15;;;9.60;99.90;;;;;;5031716;28;20057;-60
2022/02/04 01:55:16;;;;;;;20.95;11.38;;;9.60;99.90;;;;;;5031007;28;20079;-60
2022/02/04 01:57:42;;;;;;;18.23;11.38;;;9.60;99.90;;;;;;5036301;28;20108;-61
2022/02/04 02:00:08;;;;;;;18.85;12.18;;;9.60;99.90;;;;;;5051231;28;20132;-61
2022/02/04 02:02:35;;;;;;;22.30;12.20;;;9.60;99.90;;;;;;5045888;28;20057;-61
2022/02/04 02:05:00;;;;;;;19.75;11.88;;;9.60;99.90;;;;;;5051143;28;20021;-61
2022/02/04 02:07:28;;;;;;;18.63;11.75;;;9.60;99.90;;;;;;5045593;28;20022;-61
2022/02/04 02:09:59;;;;;;;18.35;11.70;;;9.70;99.90;;;;;;5031010;28;20097;-61
2022/02/04 02:12:29;;;;;;;20.83;11.73;;;9.60;99.90;;;;;;5031396;28;20445;-61
2022/02/04 02:15:10;;;;;;;23.98;12.02;;;9.60;99.90;;;;;;5031441;28;20037;-60
2022/02/04 02:40:25;;;;;;;22.97;12.13;;;9.50;99.90;;;;;;5034614;28;20036;-62
2022/02/04 02:51:12;;;;;;;22.90;12.07;;;9.40;99.80;;;;;;5046398;28;20432;-61
2022/02/04 02:57:05;;;;;;;21.98;13.05;;;9.40;99.70;;;;;;4972994;28;20510;-61
2022/02/04 02:59:35;;;;;;;23.58;13.23;;;9.40;99.70;;;;;;4955225;28;20043;-61
2022/02/04 03:02:00;;;;;;;20.83;13.00;;;9.40;99.70;;;;;;4995817;28;20119;-61
2022/02/04 03:04:26;;;;;;;20.88;12.07;;;9.40;99.70;;;;;;5014449;28;20385;-61
2022/02/04 03:06:51;;;;;;;21.80;12.15;;;9.40;99.70;;;;;;5026748;28;20502;-61
2022/02/04 03:09:17;;;;;;;20.77;12.70;;;9.40;99.70;;;;;;5032808;28;20045;-62
2022/02/04 03:11:43;;;;;;;21.85;11.93;;;9.40;99.60;;;;;;5032825;28;20481;-62
2022/02/04 03:14:09;;;;;;;21.13;12.45;;;9.40;99.60;;;;;;5032643;28;20080;-61
2022/02/04 03:16:35;;;;;;;22.45;12.75;;;9.40;99.60;;;;;;5014486;28;20087;-61
2022/02/04 03:19:03;;;;;;;21.17;13.00;;;9.40;99.60;;;;;;5014753;28;20033;-61
2022/02/04 03:21:35;;;;;;;26.15;13.68;;;9.40;99.50;;;;;;5014449;28;20046;-61
2022/02/04 03:24:06;;;;;;;19.27;11.80;;;9.40;99.50;;;;;;5023320;28;20025;-61
2022/02/04 03:29:06;;;;;;;22.77;12.73;;;9.40;99.50;;;;;;5031995;28;20029;-61
2022/02/04 03:31:38;;;;;;;23.10;13.32;;;9.40;99.50;;;;;;5029153;28;20048;-61
2022/02/04 03:34:04;;;;;;;22.08;13.15;;;9.30;99.50;;;;;;5019762;28;20021;-61
2022/02/04 03:36:30;;;;;;;20.42;12.55;;;9.30;99.50;;;;;;5015503;28;20030;-61
2022/02/04 03:38:56;;;;;;;21.00;12.40;;;9.30;99.50;;;;;;5021089;28;20030;-61
2022/02/04 03:41:21;;;;;;;21.55;12.38;;;9.30;99.50;;;;;;5013788;28;20034;-61
2022/02/04 03:43:47;;;;;;;21.90;12.43;;;9.30;99.50;;;;;;5023346;28;20071;-61
2022/02/04 03:46:12;;;;;;;21.45;12.98;;;9.30;99.40;;;;;;5033518;28;20017;-61
2022/02/04 03:48:38;;;;;;;23.80;13.35;;;9.30;99.40;;;;;;5023539;28;20575;-61
2022/02/04 03:51:04;;;;;;;23.58;12.82;;;9.30;99.40;;;;;;5030241;28;20028;-61
2022/02/04 03:53:29;;;;;;;23.17;12.90;;;9.30;99.40;;;;;;5028564;28;20385;-61
2022/02/04 03:55:55;;;;;;;21.80;13.50;;;9.30;99.40;;;;;;5040784;28;20040;-61
2022/02/04 03:58:21;;;;;;;19.55;11.68;;;9.30;99.40;;;;;;5024954;28;20100;-61
2022/02/04 04:00:46;;;;;;;21.85;12.65;;;9.30;99.40;;;;;;5024930;28;20045;-61
2022/02/04 04:03:12;;;;;;;24.33;12.43;;;9.30;99.40;;;;;;5033295;28;20044;-61
2022/02/04 04:05:43;;;;;;;23.02;12.70;;;9.30;99.40;;;;;;5036327;28;20488;-61
2022/02/04 04:08:09;;;;;;;21.02;11.73;;;9.30;99.40;;;;;;5037424;28;20056;-61
2022/02/04 04:10:39;;;;;;;21.98;12.48;;;9.30;99.30;;;;;;5052916;28;20523;-61
2022/02/04 04:13:06;;;;;;;19.88;12.25;;;9.30;99.30;;;;;;5046776;28;20030;-61
2022/02/04 04:15:31;;;;;;;20.67;12.48;;;9.30;99.30;;;;;;5033037;28;20018;-61
2022/02/04 04:17:57;;;;;;;20.13;12.32;;;9.30;99.40;;;;;;5035971;28;20028;-61
2022/02/04 04:20:25;;;;;;;20.95;12.30;;;9.30;99.40;;;;;;5041119;28;20029;-61
2022/02/04 04:22:52;;;;;;;25.77;14.05;;;9.30;99.30;;;;;;5048087;28;20064;-64
2022/02/04 04:25:18;;;;;;;24.00;12.98;;;9.30;99.30;;;;;;5032800;28;20373;-61
2022/02/04 04:27:45;;;;;;;22.60;12.20;;;9.30;99.30;;;;;;5033041;28;20361;-61
2022/02/04 04:30:16;;;;;;;22.40;13.15;;;9.30;99.30;;;;;;5014474;28;20025;-61
2022/02/04 04:32:44;;;;;;;19.60;11.68;;;9.30;99.30;;;;;;5031579;28;20029;-61
2022/02/04 04:35:11;;;;;;;21.45;12.65;;;9.30;99.20;;;;;;5046543;28;20078;-61
2022/02/04 04:37:44;;;;;;;19.70;11.63;;;9.30;99.20;;;;;;5032699;28;20033;-61
2022/02/04 04:46:03;;;;;;;23.38;13.18;;;9.30;99.20;;;;;;5032372;28;20036;-61
2022/02/04 05:30:03;;;;;;;20.00;12.03;;;9.20;99.20;;;;;;5031754;28;20499;-61
2022/02/04 05:32:29;;;;;;;19.92;11.90;;;9.20;99.20;;;;;;5031127;28;20032;-61
2022/02/04 05:34:54;;;;;;;21.00;12.80;;;9.20;99.20;;;;;;5051468;28;20399;-61
2022/02/04 05:37:22;;;;;;;21.90;12.00;;;9.20;99.20;;;;;;5051129;28;20029;-61
2022/02/04 05:39:57;;;;;;;22.83;13.18;;;9.20;99.20;;;;;;5049566;28;20031;-61
2022/02/04 05:42:28;;;;;;;19.15;11.75;;;9.30;99.20;;;;;;5035158;28;20041;-61
2022/02/04 05:44:59;;;;;;;21.60;11.70;;;9.20;99.20;;;;;;5045245;28;20522;-61
2022/02/04 05:47:25;;;;;;;21.73;11.15;;;9.20;99.20;;;;;;5050731;28;20177;-61
2022/02/04 05:50:11;;;;;;;20.67;11.80;;;9.30;99.20;;;;;;5035125;28;20455;-61
2022/02/04 05:53:06;;;;;;;16.55;10.52;;;9.20;99.20;;;;;;5037645;28;20035;-61
2022/02/04 05:58:32;;;;;;;22.02;12.30;;;9.20;99.10;;;;;;5049272;28;20044;-61
2022/02/04 06:01:48;;;;;;;20.65;12.93;;;9.20;99.10;;;;;;5039743;28;20059;-61
2022/02/04 06:04:04;;;;;;;21.42;12.43;;;9.20;99.20;;;;;;5034517;28;20059;-61
2022/02/04 06:06:56;;;;;;;18.52;10.95;;;9.20;99.20;;;;;;5031222;28;20033;-60
2022/02/04 06:10:04;;;;;;;20.25;11.90;;;9.20;99.20;;;;;;5038587;28;20029;-61
2022/02/04 06:12:41;;;;;;;19.77;11.43;;;9.20;99.10;;;;;;5031033;28;20022;-61
2022/02/04 06:22:08;;;;;;;21.80;11.82;;;9.20;99.10;;;;;;5042820;28;20029;-61
2022/02/04 06:23:13;;;;;;;20.15;11.80;;;9.20;99.10;;;;;;5036125;28;20124;-61
2022/02/04 06:25:40;;;;;;;21.80;12.48;;;9.20;99.10;;;;;;5050336;28;20064;-61
2022/02/04 06:28:06;;;;;;;19.83;11.63;;;9.20;99.10;;;;;;5041008;28;20101;-61
2022/02/04 06:30:32;;;;;;;23.55;13.50;;;9.20;99.10;;;;;;5050092;28;20036;-63
2022/02/04 06:32:58;;;;;;;22.58;12.80;;;9.20;99.10;;;;;;5043370;28;20079;-63
2022/02/04 06:35:23;;;;;;;19.00;11.75;;;9.20;99.10;;;;;;5035009;28;20033;-62
2022/02/04 06:37:49;;;;;;;20.75;12.75;;;9.30;99.10;;;;;;5050125;28;20151;-62
2022/02/04 06:40:14;;;;;;;20.58;11.73;;;9.30;99.10;;;;;;5041314;28;20032;-62
2022/02/04 06:42:40;;;;;;;21.08;11.80;;;9.20;99.10;;;;;;5048029;28;20068;-62
2022/02/04 06:45:08;;;;;;;17.58;11.55;;;9.30;99.10;;;;;;5034553;28;20028;-62
2022/02/04 06:47:37;;;;;;;19.83;11.68;;;9.20;99.10;;;;;;5037824;28;20029;-63
2022/02/04 06:50:03;;;;;;;21.83;11.75;;;9.30;99.10;;;;;;5049200;28;20024;-62
2022/02/04 06:52:28;;;;;;;21.40;11.63;;;9.30;99.10;;;;;;5043411;28;20036;-62
2022/02/04 06:54:54;;;;;;;20.05;12.00;;;9.30;99.00;;;;;;5036012;28;20029;-62
2022/02/04 06:57:19;;;;;;;20.98;11.82;;;9.30;99.00;;;;;;5038500;28;20120;-62
2022/02/04 06:59:47;;;;;;;21.15;12.32;;;9.30;99.00;;;;;;5038729;28;20399;-63
2022/02/04 07:02:13;;;;;;;21.23;12.82;;;9.30;99.00;;;;;;5040011;28;20401;-62
2022/02/04 07:04:40;;;;;;;22.55;13.27;;;9.30;99.00;;;;;;5037383;28;20053;-62
2022/02/04 07:07:05;;;;;;;20.95;12.43;;;9.30;99.00;;;;;;5045337;28;20052;-62
2022/02/04 07:12:18;;;;;;;21.35;11.77;;;9.30;99.00;;;;;;5042096;28;20167;-62
2022/02/04 07:15:09;;;;;;;19.98;11.82;;;9.30;99.00;;;;;;5038581;28;20437;-62
2022/02/04 07:20:01;;;;;;;20.05;12.52;;;9.30;99.00;;;;;;5039539;28;20370;-61
2022/02/04 07:22:30;;;;;;;21.23;12.25;;;9.40;99.00;;;;;;5038429;28;20053;-62
2022/02/04 07:24:59;;;;;;;20.73;12.48;;;9.40;99.00;;;;;;5036122;28;20105;-62
2022/02/04 07:27:26;;;;;;;19.95;11.95;;;9.40;99.00;;;;;;5036342;28;20765;-62
2022/02/04 07:29:53;;;;;;;20.02;12.13;;;9.40;98.90;;;;;;5042078;28;20036;-62
2022/02/04 07:43:02;;;;;;;20.75;11.57;;;9.40;98.80;;;;;;5037510;28;20056;-62
2022/02/04 07:45:28;;;;;;;19.80;11.55;;;9.40;98.80;;;;;;5039221;28;20480;-62
2022/02/04 07:47:54;;;;;;;19.23;11.63;;;9.50;98.80;;;;;;5036553;28;20029;-62
2022/02/04 07:50:21;;;;;;;20.20;11.43;;;9.50;98.80;;;;;;5038249;28;20106;-62
2022/02/04 07:52:50;;;;;;;19.95;11.88;;;9.50;98.70;;;;;;5035431;28;20097;-62
2022/02/04 07:55:16;;;;;;;18.25;10.90;;;9.50;98.80;;;;;;5044212;28;20492;-62
2022/02/04 07:57:42;;;;;;;18.75;11.57;;;9.50;98.80;;;;;;5035188;28;20036;-62
2022/02/04 08:00:09;;;;;;;19.02;11.43;;;9.60;98.80;;;;;;5037014;28;20054;-63
2022/02/04 08:02:34;;;;;;;18.92;10.13;;;9.60;98.70;;;;;;5038118;28;20618;-63
2022/02/04 08:05:04;;;;;;;17.00;10.88;;;9.60;98.70;;;;;;5042424;28;20032;-62
2022/02/04 08:07:36;;;;;;;19.13;11.70;;;9.70;98.60;;;;;;5040330;28;20032;-63
2022/02/04 08:10:11;;;;;;;19.60;10.18;;;9.70;98.60;;;;;;5038173;28;20072;-63
2022/02/04 08:13:15;;;;;;;18.33;10.43;;;9.70;98.60;;;;;;5037977;28;20989;-63
2022/02/04 08:18:24;;;;;;;15.90;9.35;;;9.80;98.70;;;;;;5037481;28;20037;-63
2022/02/04 08:23:41;;;;;;;14.38;8.85;;;9.90;98.30;;;;;;5039106;28;20107;-64
2022/02/04 08:31:21;;;;;;;13.70;8.30;;;9.90;98.20;;;;;;5037408;28;20053;-63
2022/02/04 08:39:36;;;;;;;13.07;8.32;;;9.90;98.00;;;;;;5034627;28;20120;-63
2022/02/04 08:48:07;;;;;;;13.25;8.23;;;9.90;97.80;;;;;;5037402;28;20128;-63
2022/02/04 08:53:30;;;;;;;14.60;8.80;;;9.90;97.80;;;;;;5033274;28;20040;-63
2022/02/04 08:55:56;;;;;;;15.80;7.72;;;10.00;97.70;;;;;;5035215;28;20037;-62
2022/02/04 09:00:57;;;;;;;13.15;7.60;;;10.00;97.60;;;;;;5035801;28;20136;-64
2022/02/04 09:03:37;;;;;;;10.23;6.80;;;9.90;97.50;;;;;;5041190;28;20052;-63
2022/02/04 09:06:07;;;;;;;11.95;7.60;;;10.00;97.50;;;;;;5032905;28;20033;-62
2022/02/04 09:08:37;;;;;;;13.80;7.18;;;9.90;97.50;;;;;;5035560;28;20029;-63
2022/02/04 09:11:07;;;;;;;10.85;6.78;;;9.90;97.40;;;;;;5038541;28;20021;-63
2022/02/04 09:19:07;;;;;;;10.47;7.13;;;10.00;97.30;;;;;;5032168;28;20033;-62
2022/02/04 09:24:11;;;;;;;10.77;6.88;;;10.00;97.20;;;;;;5039991;28;20040;-62
2022/02/04 09:26:38;;;;;;;9.73;6.72;;;10.00;97.20;;;;;;5041768;28;20049;-62
2022/02/04 09:29:04;;;;;;;9.73;6.53;;;9.90;97.20;;;;;;5040200;28;20029;-63
2022/02/04 09:31:30;;;;;;;12.13;7.07;;;10.00;97.20;;;;;;5042153;28;20079;-63
2022/02/04 09:33:55;;;;;;;9.95;6.43;;;9.90;97.30;;;;;;5041880;28;20037;-63
2022/02/04 09:36:21;;;;;;;10.25;6.55;;;9.90;97.10;;;;;;5035527;28;20032;-63
2022/02/04 09:38:46;;;;;;;9.18;6.13;;;10.00;97.20;;;;;;5041148;28;20025;-63
2022/02/04 09:41:12;;;;;;;9.98;6.05;;;10.00;97.20;;;;;;5037359;28;20418;-63
2022/02/04 09:43:37;;;;;;;10.45;6.35;;;9.90;97.20;;;;;;5036089;28;20098;-63
2022/02/04 09:46:06;;;;;;;11.68;7.60;;;10.00;97.20;;;;;;5036249;28;20025;-63
2022/02/04 09:48:31;;;;;;;13.77;6.60;;;10.00;97.10;;;;;;5038168;28;20111;-63
2022/02/04 09:50:59;;;;;;;7.93;5.65;;;10.00;97.10;;;;;;5033313;28;20537;-63
2022/02/04 10:04:55;;;;;;;10.98;6.85;;;9.90;97.30;;;;;;5031747;28;20293;-62
2022/02/04 10:07:39;;;;;;;11.15;7.40;;;9.90;97.20;;;;;;5041740;28;20433;-62
2022/02/04 10:12:59;;;;;;;11.15;7.45;;;9.90;97.20;;;;;;5043453;28;20017;-63
2022/02/04 10:18:09;;;;;;;11.20;7.28;;;9.90;97.30;;;;;;5041779;28;20052;-62
2022/02/04 10:20:38;;;;;;;12.13;7.43;;;9.90;97.30;;;;;;5039338;28;20056;-62
2022/02/04 10:23:03;;;;;;;12.63;8.13;;;9.90;97.40;;;;;;5043011;28;20069;-61
2022/02/04 10:25:32;;;;;;;11.88;7.40;;;10.00;97.40;;;;;;5040081;28;20060;-62
2022/02/04 10:28:03;;;;;;;13.15;8.02;;;9.90;97.30;;;;;;5037816;28;20061;-63
2022/02/04 10:30:31;;;;;;;13.43;7.80;;;10.00;97.20;;;;;;5033468;28;20091;-63
2022/02/04 10:32:59;;;;;;;12.23;7.30;;;9.90;97.20;;;;;;5034058;28;20025;-63
2022/02/04 10:35:33;;;;;;;15.82;8.85;;;10.00;97.20;;;;;;5030848;28;20100;-64
2022/02/04 10:38:43;;;;;;;14.90;8.32;;;10.00;97.20;;;;;;5035717;28;20086;-63
2022/02/04 10:41:09;;;;;;;13.40;7.80;;;10.00;97.30;;;;;;5029556;28;20032;-64
2022/02/04 10:44:03;;;;;;;11.77;8.38;;;10.00;97.20;;;;;;5028757;28;20424;-63
2022/02/04 10:46:37;;;;;;;12.80;7.25;;;10.00;97.20;;;;;;5043158;28;20029;-64
2022/02/04 10:51:58;;;;;;;12.55;7.55;;;10.00;97.30;;;;;;5049168;28;20026;-62
2022/02/04 10:55:04;;;;;;;13.35;7.43;;;9.90;97.40;;;;;;5035799;28;20487;-64
2022/02/04 11:00:11;;;;;;;12.45;6.97;;;10.00;97.40;;;;;;5037329;28;20107;-64
2022/02/04 11:05:26;;;;;;;11.35;7.47;;;10.20;97.50;;;;;;5039796;28;20468;-63
2022/02/04 11:31:03;;;;;;;8.87;6.10;;;10.70;97.20;;;;;;5052033;28;20055;-63
2022/02/04 11:36:10;;;;;;;9.10;6.53;;;10.90;97.10;;;;;;5012949;28;20030;-63
2022/02/04 11:47:53;;;;;;;8.65;5.82;;;11.10;96.60;;;;;;5045750;28;20303;-63
2022/02/04 11:53:31;;;;;;;10.02;6.28;;;11.20;96.50;;;;;;5037128;28;20047;-64
2022/02/04 11:56:01;;;;;;;9.95;6.53;;;11.30;96.40;;;;;;5037862;28;20476;-63
2022/02/04 11:58:26;;;;;;;8.80;5.70;;;11.30;96.30;;;;;;5033963;28;20038;-64
2022/02/04 12:01:05;;;;;;;9.32;5.40;;;11.30;96.20;;;;;;5037741;28;20497;-64
2022/02/04 12:03:39;;;;;;;7.47;5.15;;;11.30;96.10;;;;;;5043701;28;20040;-64
2022/02/04 12:06:29;;;;;;;9.57;6.15;;;11.30;96.00;;;;;;5037957;28;20032;-64
2022/02/04 12:09:12;;;;;;;10.65;6.50;;;11.30;96.00;;;;;;5038849;28;20033;-64
2022/02/04 12:11:40;;;;;;;9.98;6.53;;;11.30;96.00;;;;;;5037593;28;20101;-64
2022/02/04 12:14:10;;;;;;;8.18;5.78;;;11.40;96.10;;;;;;5036463;28;20050;-63
2022/02/04 12:16:57;;;;;;;12.63;7.22;;;11.30;96.10;;;;;;5042030;28;20032;-63
2022/02/04 12:19:35;;;;;;;8.73;5.55;;;11.30;96.20;;;;;;5038390;28;20044;-63
2022/02/04 12:22:01;;;;;;;8.20;5.63;;;11.40;96.20;;;;;;5037021;28;20033;-64
2022/02/04 12:24:32;;;;;;;9.77;5.45;;;11.40;96.20;;;;;;5037124;28;20087;-64
2022/02/04 12:27:30;;;;;;;9.93;5.60;;;11.40;96.10;;;;;;5035542;28;20032;-64
2022/02/04 12:29:57;;;;;;;7.00;4.82;;;11.40;96.10;;;;;;5037190;28;20227;-64
2022/02/04 12:32:23;;;;;;;7.78;4.70;;;11.40;96.10;;;;;;5040908;28;20029;-63
2022/02/04 12:34:50;;;;;;;6.15;4.57;;;11.40;96.10;;;;;;5035175;28;20025;-64
2022/02/04 12:37:16;;;;;;;8.07;4.65;;;11.50;96.00;;;;;;5037745;28;20029;-64
2022/02/04 12:39:42;;;;;;;5.40;3.95;;;11.50;95.90;;;;;;5042065;28;20029;-64
2022/02/04 12:42:10;;;;;;;6.38;3.85;;;11.50;95.80;;;;;;5036392;28;20041;-64
2022/02/04 12:44:38;;;;;;;8.60;4.28;;;11.50;95.80;;;;;;5036519;28;20033;-63
2022/02/04 12:47:10;;;;;;;5.72;3.90;;;11.50;95.70;;;;;;5036397;28;20029;-64
2022/02/04 12:49:47;;;;;;;6.82;4.38;;;11.50;95.70;;;;;;5017321;28;20048;-63
2022/02/04 12:54:45;;;;;;;7.50;5.03;;;11.50;95.60;;;;;;5039406;28;21826;-63
2022/02/04 13:02:56;;;;;;;7.60;3.90;;;11.50;95.50;;;;;;5045944;28;20041;-63
2022/02/04 13:08:15;;;;;;;5.50;3.80;;;11.60;95.40;;;;;;5035408;28;20136;-63
2022/02/04 13:10:42;;;;;;;7.43;4.28;;;11.60;95.40;;;;;;5039258;28;20627;-63
2022/02/04 13:13:16;;;;;;;7.00;4.25;;;11.50;95.20;;;;;;5037972;28;20096;-64
2022/02/04 13:15:43;;;;;;;6.20;3.90;;;11.50;95.30;;;;;;5039032;28;20504;-64
2022/02/04 13:18:11;;;;;;;7.43;4.25;;;11.50;95.40;;;;;;5038043;28;20025;-64
2022/02/04 13:20:39;;;;;;;5.63;3.38;;;11.50;95.40;;;;;;5040374;28;20037;-63
2022/02/04 13:23:08;;;;;;;5.93;3.70;;;11.50;95.30;;;;;;5038932;28;20041;-64
2022/02/04 13:25:36;;;;;;;8.70;4.78;;;11.60;95.30;;;;;;5043897;28;20139;-64
2022/02/04 13:28:06;;;;;;;7.60;4.90;;;11.60;95.40;;;;;;5022796;28;20036;-64
2022/02/04 13:30:39;;;;;;;7.50;4.93;;;11.60;95.40;;;;;;5038966;28;20078;-64
2022/02/04 13:33:18;;;;;;;8.23;5.10;;;11.60;95.30;;;;;;5037339;28;20119;-64
2022/02/04 13:35:52;;;;;;;7.45;4.15;;;11.60;95.20;;;;;;5042079;28;20029;-64
2022/02/04 13:38:34;;;;;;;7.90;5.38;;;11.70;95.20;;;;;;5033772;28;20072;-64
2022/02/04 13:41:08;;;;;;;6.05;4.18;;;11.70;95.20;;;;;;5041251;28;20030;-64
2022/02/04 13:43:44;;;;;;;8.47;5.20;;;11.70;95.10;;;;;;5042448;28;20048;-64
2022/02/04 13:46:36;;;;;;;5.47;3.88;;;11.70;95.10;;;;;;5018859;28;20524;-64
2022/02/04 13:49:24;;;;;;;6.43;4.00;;;11.60;95.10;;;;;;5039152;28;20028;-64
2022/02/04 13:51:59;;;;;;;6.78;4.20;;;11.60;95.10;;;;;;5040672;28;20024;-64
2022/02/04 13:57:24;;;;;;;6.88;4.03;;;11.60;95.00;;;;;;5031627;28;20781;-65
2022/02/04 14:00:42;;;;;;;6.15;4.15;;;11.60;95.00;;;;;;5038321;28;20044;-65
2022/02/04 14:03:10;;;;;;;5.97;4.00;;;11.60;94.90;;;;;;5040622;28;20045;-64
2022/02/04 14:05:43;;;;;;;7.18;4.20;;;11.60;94.90;;;;;;5037212;28;20072;-64
2022/02/04 14:08:13;;;;;;;7.15;4.18;;;11.60;94.80;;;;;;5022507;28;20431;-64
2022/02/04 14:10:55;;;;;;;6.25;4.05;;;11.60;94.80;;;;;;5035926;28;20492;-64
2022/02/04 14:13:23;;;;;;;9.55;4.25;;;11.60;94.80;;;;;;5041375;28;20075;-64
2022/02/04 14:15:54;;;;;;;7.03;4.35;;;11.60;94.80;;;;;;5038354;28;20108;-65
2022/02/04 14:18:20;;;;;;;7.93;3.83;;;11.70;94.70;;;;;;5039766;28;20027;-64
2022/02/04 14:20:46;;;;;;;6.50;4.47;;;11.60;94.70;;;;;;5036520;28;20033;-64
2022/02/04 14:23:12;;;;;;;4.32;3.03;;;11.70;94.70;;;;;;5040910;28;20098;-64
2022/02/04 14:26:00;;;;;;;7.43;3.67;;;11.60;94.70;;;;;;5035769;28;20028;-63
2022/02/04 14:28:54;;;;;;;4.72;2.95;;;11.60;94.70;;;;;;5037023;28;20095;-64
2022/02/04 14:34:39;;;;;;;5.13;2.85;;;11.60;94.60;;;;;;5037499;28;20030;-64
2022/02/04 14:36:50;;;;;;;6.10;3.22;;;11.50;94.70;;;;;;5036163;28;20022;-64
2022/02/04 15:06:04;;;;;;;10.63;3.53;;;11.30;94.60;;;;;;5034502;28;20050;-64
2022/02/04 15:08:34;;;;;;;4.53;2.50;;;11.30;94.60;;;;;;5042983;28;20033;-64
2022/02/04 15:11:03;;;;;;;3.75;2.45;;;11.30;94.60;;;;;;5049918;28;20120;-64
2022/02/04 15:13:31;;;;;;;3.45;2.10;;;11.30;94.70;;;;;;5052918;28;20102;-64
2022/02/04 15:15:59;;;;;;;5.60;2.40;;;11.30;94.60;;;;;;5053336;28;20021;-64
2022/02/04 15:18:25;;;;;;;3.97;2.75;;;11.20;94.60;;;;;;5038784;28;20082;-64
2022/02/04 15:20:57;;;;;;;5.80;3.25;;;11.30;94.70;;;;;;5052044;28;20564;-64
2022/02/04 15:23:22;;;;;;;6.00;2.67;;;11.20;94.70;;;;;;5038152;28;20167;-64
2022/02/04 15:25:52;;;;;;;4.47;2.60;;;11.20;94.80;;;;;;5036225;28;20033;-64
2022/02/04 15:30:54;;;;;;;6.32;2.50;;;11.10;94.80;;;;;;5034233;28;20033;-64
2022/02/04 15:33:20;;;;;;;3.88;2.15;;;11.10;94.80;;;;;;5030120;28;20377;-63
2022/02/04 15:35:46;;;;;;;4.53;2.22;;;11.10;94.70;;;;;;5050273;28;20028;-64
2022/02/04 15:38:12;;;;;;;3.33;2.08;;;11.10;94.70;;;;;;5051682;28;20510;-64
2022/02/04 15:40:42;;;;;;;2.78;1.83;;;11.10;94.70;;;;;;5053276;28;20463;-65
2022/02/04 15:43:07;;;;;;;2.78;1.67;;;11.10;94.70;;;;;;5045079;28;20408;-64
2022/02/04 15:50:56;;;;;;;4.50;2.20;;;11.00;94.70;;;;;;5040777;28;20492;-64
2022/02/04 15:53:56;;;;;;;3.35;2.42;;;11.10;94.70;;;;;;5050579;28;20037;-64
2022/02/04 16:01:33;;;;;;;3.70;2.40;;;10.90;94.60;;;;;;5050917;28;20052;-64
2022/02/04 16:06:45;;;;;;;3.07;1.97;;;10.90;94.60;;;;;;5039731;28;20024;-64
2022/02/04 16:09:10;;;;;;;3.55;2.00;;;10.90;94.60;;;;;;5048242;28;20068;-64
2022/02/04 16:11:51;;;;;;;3.65;2.13;;;10.90;94.60;;;;;;5033405;28;20053;-64
2022/02/04 16:14:29;;;;;;;2.75;1.60;;;10.90;94.50;;;;;;5039644;28;20068;-64
2022/02/04 16:17:11;;;;;;;3.90;1.65;;;10.80;94.50;;;;;;5041662;28;20069;-65
2022/02/04 16:19:54;;;;;;;4.43;2.38;;;10.80;94.40;;;;;;5035700;28;20496;-65
2022/02/04 16:25:17;;;;;;;3.58;2.00;;;10.80;94.30;;;;;;5043559;28;20040;-64
2022/02/04 16:30:11;;;;;;;3.53;2.25;;;10.80;94.30;;;;;;5032975;28;20021;-64
2022/02/04 16:32:36;;;;;;;4.47;2.25;;;10.80;94.40;;;;;;5035291;28;20036;-64
2022/02/04 16:35:04;;;;;;;4.57;2.00;;;10.80;94.40;;;;;;5039539;28;20026;-64
2022/02/04 16:37:33;;;;;;;6.03;2.47;;;10.70;94.30;;;;;;5036297;28;20122;-64
2022/02/04 16:40:03;;;;;;;5.75;2.63;;;10.80;94.30;;;;;;5040092;28;20026;-64
2022/02/04 16:42:29;;;;;;;5.13;2.53;;;10.80;94.20;;;;;;5043720;28;20037;-64
2022/02/04 16:44:55;;;;;;;4.70;2.50;;;10.70;94.20;;;;;;5037889;28;20108;-64
2022/02/04 16:47:21;;;;;;;6.25;2.67;;;10.70;94.20;;;;;;5038980;28;20121;-64
2022/02/04 16:49:47;;;;;;;4.03;2.17;;;10.70;94.20;;;;;;5042059;28;20029;-64
2022/02/04 16:52:15;;;;;;;3.78;2.10;;;10.70;94.20;;;;;;5044446;28;20840;-64
2022/02/04 16:54:41;;;;;;;4.25;1.90;;;10.70;94.10;;;;;;5038712;28;20388;-64
2022/02/04 16:57:07;;;;;;;3.03;1.75;;;10.70;94.10;;;;;;5035463;28;20105;-64
2022/02/04 16:59:33;;;;;;;2.63;1.83;;;10.60;94.10;;;;;;5038303;28;20040;-65
2022/02/04 17:02:00;;;;;;;3.30;1.90;;;10.70;94.10;;;;;;5040961;28;20095;-65
2022/02/04 17:04:25;;;;;;;2.75;1.55;;;10.70;94.20;;;;;;5035141;28;20025;-64
2022/02/04 17:07:18;;;;;;;2.67;1.88;;;10.60;94.10;;;;;;5037878;28;20500;-64
2022/02/04 17:09:47;;;;;;;4.18;1.83;;;10.60;94.10;;;;;;5037514;28;20025;-64
2022/02/04 17:12:13;;;;;;;3.08;1.80;;;10.60;94.10;;;;;;5035943;28;20135;-63
2022/02/04 17:14:39;;;;;;;2.42;1.70;;;10.60;94.10;;;;;;5042854;28;20577;-63
2022/02/04 17:17:06;;;;;;;3.13;1.75;;;10.60;94.10;;;;;;5035831;28;20029;-64
2022/02/04 17:19:41;;;;;;;6.45;2.78;;;10.60;94.10;;;;;;5039947;28;20021;-64
2022/02/04 17:22:08;;;;;;;4.85;2.13;;;10.60;94.10;;;;;;5036777;28;20030;-65
2022/02/04 17:24:33;;;;;;;5.25;2.50;;;10.60;94.10;;;;;;5035567;28;20132;-65
2022/02/04 17:27:00;;;;;;;4.45;2.47;;;10.50;94.10;;;;;;5036437;28;20155;-64
2022/02/04 17:29:30;;;;;;;4.15;2.45;;;10.60;94.10;;;;;;5038711;28;20040;-64
2022/02/04 17:31:56;;;;;;;4.13;2.80;;;10.60;94.10;;;;;;5036541;28;20028;-64
2022/02/04 17:34:22;;;;;;;8.18;2.30;;;10.60;94.10;;;;;;5038325;28;20038;-64
2022/02/04 17:36:48;;;;;;;3.60;2.15;;;10.60;94.10;;;;;;5042126;28;20476;-64
2022/02/04 17:39:20;;;;;;;5.38;2.67;;;10.60;94.10;;;;;;5045386;28;20025;-64
2022/02/04 17:41:48;;;;;;;5.32;3.00;;;10.60;94.10;;;;;;5042428;28;20071;-64
2022/02/04 17:44:15;;;;;;;5.53;2.65;;;10.50;94.10;;;;;;5033989;28;20060;-64
2022/02/04 17:46:41;;;;;;;6.38;2.65;;;10.60;94.10;;;;;;5031796;28;20026;-63
2022/02/04 17:49:19;;;;;;;4.88;2.70;;;10.60;94.10;;;;;;5021712;28;20040;-64
2022/02/04 17:52:00;;;;;;;4.95;2.45;;;10.50;94.10;;;;;;5031994;28;20025;-64
2022/02/04 17:54:47;;;;;;;4.38;2.60;;;10.50;94.10;;;;;;5034066;28;20112;-64
2022/02/04 17:57:19;;;;;;;4.93;2.80;;;10.50;94.10;;;;;;5034205;28;20029;-63
2022/02/04 18:00:18;;;;;;;5.53;2.63;;;10.50;94.10;;;;;;5038213;28;20120;-63
2022/02/04 18:02:58;;;;;;;4.20;2.47;;;10.50;94.10;;;;;;5017447;28;20041;-64
2022/02/04 18:05:41;;;;;;;4.75;2.90;;;10.50;94.10;;;;;;5033855;28;20066;-63
2022/02/04 18:08:07;;;;;;;5.20;3.08;;;10.40;94.10;;;;;;5033139;28;20076;-63
2022/02/04 18:10:33;;;;;;;7.10;3.80;;;10.40;94.10;;;;;;5033468;28;20078;-63
2022/02/04 18:12:59;;;;;;;3.92;2.40;;;10.50;94.10;;;;;;5039450;28;20022;-63
2022/02/04 18:15:25;;;;;;;5.43;3.05;;;10.50;94.10;;;;;;5041108;28;20033;-63
2022/02/04 18:17:50;;;;;;;5.88;2.78;;;10.50;94.10;;;;;;5037318;28;20036;-63
2022/02/04 18:20:16;;;;;;;6.03;3.25;;;10.50;94.00;;;;;;5038131;28;20040;-65
2022/02/04 18:22:44;;;;;;;5.22;2.95;;;10.40;94.00;;;;;;5039176;28;20140;-64